YM Venus — 9HCB8 — position and weather

sailwx.info

Track history (hours):
 
Tides and Currents Weather Stations Pressure Air Temp Water Temp Dewpoint Dewpoint Depression Visibility Wind Speed Wind Dir Waves Ship Positions

YM Venus

Last reported at 2017-Dec-14 03:00 UTC. Time now 2017-Dec-15 10:31 UTC.
Position N 36°60' E 023°44'.

Length 105 m; draft 5.1 m.

Type: Tanker. MMSI: 215826000.

Date/timePositionNaut miles runAvg speedWind from/ knotsBaromVisibWave heightAir tempDewpointWater temp
2017-Dec-14 03:00N 36°60' E 023°44'612.9
2017-Dec-14 02:30N 37°05' E 023°47'713.2
2017-Dec-14 02:00N 37°11' E 023°51'612.8
2017-Dec-14 01:30N 37°17' E 023°55'613.0
2017-Dec-14 01:01N 37°23' E 023°59'612.9
2017-Dec-14 00:30N 37°28' E 024°03'612.8
2017-Dec-14 00:00N 37°34' E 024°07'1312.5
2017-Dec-13 22:56N 37°44' E 024°18'289 7.9
2017-Dec-12 10:30N 40°56' E 028°57'812.9
2017-Dec-12 09:53N 40°50' E 029°03'512.9
2017-Dec-12 09:30N 40°46' E 029°08'612.8
2017-Dec-12 09:00N 40°44' E 029°16'12 0.3
2017-Dec-10 19:46N 40°45' E 029°31'511.9
2017-Dec-10 19:22N 40°44' E 029°25'3 9.3
2017-Dec-10 19:00N 40°43' E 029°21'510.3
2017-Dec-10 18:31N 40°43' E 029°14'612.1
2017-Dec-10 17:59N 40°43' E 029°06'237 4.8
2017-Dec-08 16:07N 37°44' E 025°44'1611.7
2017-Dec-08 14:46N 37°30' E 025°52'311.7
2017-Dec-08 14:30N 37°27' E 025°54'611.8
2017-Dec-08 14:00N 37°24' E 026°00'611.7
2017-Dec-08 13:30N 37°21' E 026°07'611.5
2017-Dec-08 13:00N 37°18' E 026°13'611.6
2017-Dec-08 12:30N 37°15' E 026°19'611.6
2017-Dec-08 12:00N 37°12' E 026°25'611.4
2017-Dec-08 11:30N 37°09' E 026°31'611.6
2017-Dec-08 11:00N 37°05' E 026°37'  
Track history (hours):
 
Tides and Currents Weather Stations Pressure Air Temp Water Temp Dewpoint Dewpoint Depression Visibility Wind Speed Wind Dir Waves Ship Positions

YM Venus

Last reported at 2017-Dec-14 03:00 UTC. Time now 2017-Dec-15 10:31 UTC.
Position N 36°60' E 023°44'.

Length 105 m; draft 5.1 m.

Type: Tanker. MMSI: 215826000.

Date/timePositionNaut miles runAvg speedWind from/ knotsBaromVisibWave heightAir tempDewpointWater temp
2017-Dec-14 03:00N 36°60' E 023°44'612.9
2017-Dec-14 02:30N 37°05' E 023°47'713.2
2017-Dec-14 02:00N 37°11' E 023°51'612.8
2017-Dec-14 01:30N 37°17' E 023°55'613.0
2017-Dec-14 01:01N 37°23' E 023°59'612.9
2017-Dec-14 00:30N 37°28' E 024°03'612.8
2017-Dec-14 00:00N 37°34' E 024°07'1312.5
2017-Dec-13 22:56N 37°44' E 024°18'289 7.9
2017-Dec-12 10:30N 40°56' E 028°57'812.9
2017-Dec-12 09:53N 40°50' E 029°03'512.9
2017-Dec-12 09:30N 40°46' E 029°08'612.8
2017-Dec-12 09:00N 40°44' E 029°16'12 0.3
2017-Dec-10 19:46N 40°45' E 029°31'511.9
2017-Dec-10 19:22N 40°44' E 029°25'3 9.3
2017-Dec-10 19:00N 40°43' E 029°21'510.3
2017-Dec-10 18:31N 40°43' E 029°14'612.1
2017-Dec-10 17:59N 40°43' E 029°06'237 4.8
2017-Dec-08 16:07N 37°44' E 025°44'1611.7
2017-Dec-08 14:46N 37°30' E 025°52'311.7
2017-Dec-08 14:30N 37°27' E 025°54'611.8
2017-Dec-08 14:00N 37°24' E 026°00'611.7
2017-Dec-08 13:30N 37°21' E 026°07'611.5
2017-Dec-08 13:00N 37°18' E 026°13'611.6
2017-Dec-08 12:30N 37°15' E 026°19'611.6
2017-Dec-08 12:00N 37°12' E 026°25'611.4
2017-Dec-08 11:30N 37°09' E 026°31'611.6
2017-Dec-08 11:00N 37°05' E 026°37'  

Dump ship's entire track history